createdAt,value
2022-09-23T00:02:49.111Z,1.92
2022-09-23T00:07:43.743Z,1.67
2022-09-23T00:12:36.961Z,2.60
2022-09-23T00:17:30.155Z,2.67
2022-09-23T00:22:23.661Z,3.88
2022-09-23T00:27:21.112Z,3.50
2022-09-23T00:32:14.374Z,2.83
2022-09-23T00:37:07.636Z,3.55
2022-09-23T00:42:00.921Z,5.18
2022-09-23T00:46:55.573Z,4.50
2022-09-23T00:51:54.744Z,3.03
2022-09-23T00:56:47.981Z,2.47
2022-09-23T01:01:41.397Z,4.88
2022-09-23T01:06:35.941Z,2.30
2022-09-23T01:11:40.201Z,3.40
2022-09-23T01:16:42.057Z,2.78
2022-09-23T01:21:51.305Z,4.25
2022-09-23T01:26:56.728Z,2.20
2022-09-23T01:31:56.006Z,3.30
2022-09-23T01:36:53.402Z,3.50
2022-09-23T01:41:58.303Z,3.35
2022-09-23T01:46:56.246Z,3.53
2022-09-23T01:51:53.515Z,3.42
2022-09-23T01:56:52.220Z,3.47
2022-09-23T02:01:50.933Z,3.65
2022-09-23T02:06:51.238Z,2.75
2022-09-23T02:11:48.264Z,2.92
2022-09-23T02:16:47.609Z,3.72
2022-09-23T02:21:45.373Z,2.47
2022-09-23T02:26:48.186Z,4.07
2022-09-23T02:31:46.609Z,3.05
2022-09-23T02:36:52.994Z,3.05
2022-09-23T02:41:53.762Z,2.80
2022-09-23T02:46:47.632Z,3.78
2022-09-23T02:51:41.836Z,3.25
2022-09-23T02:56:35.821Z,5.00
2022-09-23T03:01:41.892Z,5.07
2022-09-23T03:06:45.101Z,4.50
2022-09-23T03:11:41.584Z,4.85
2022-09-23T03:16:43.752Z,4.72
2022-09-23T03:21:43.217Z,4.82
2022-09-23T03:26:39.801Z,4.68
2022-09-23T03:31:33.914Z,5.63
2022-09-23T03:36:52.196Z,3.90
2022-09-23T03:41:50.984Z,5.70
2022-09-23T03:46:49.834Z,4.10
2022-09-23T03:51:44.934Z,4.72
2022-09-23T03:56:38.489Z,5.45
2022-09-23T04:01:31.604Z,4.15
2022-09-23T04:06:24.938Z,7.07
2022-09-23T04:11:19.483Z,6.22
2022-09-23T04:16:12.989Z,7.80
2022-09-23T04:21:06.518Z,7.43
2022-09-23T04:26:00.799Z,6.53
2022-09-23T04:30:57.954Z,8.57
2022-09-23T04:35:53.671Z,7.60
2022-09-23T04:40:47.100Z,5.25
2022-09-23T04:45:40.457Z,5.20
2022-09-23T04:50:38.864Z,7.05
2022-09-23T04:55:32.130Z,6.07
2022-09-23T05:00:27.263Z,6.43
2022-09-23T05:05:21.268Z,6.50
2022-09-23T05:10:15.905Z,7.50
2022-09-23T05:15:09.856Z,10.13
2022-09-23T05:20:03.425Z,5.32
2022-09-23T05:24:56.665Z,6.03
2022-09-23T05:29:53.213Z,6.65
2022-09-23T05:34:46.441Z,6.50
2022-09-23T05:39:39.709Z,6.53
2022-09-23T05:44:40.132Z,4.55
2022-09-23T05:49:58.102Z,5.18
2022-09-23T05:54:50.046Z,6.28
2022-09-23T05:59:47.427Z,7.68
2022-09-23T06:04:43.175Z,5.32
2022-09-23T06:09:56.000Z,5.80
2022-09-23T06:14:50.760Z,6.18
2022-09-23T06:19:45.435Z,7.03
2022-09-23T06:24:38.577Z,7.75
2022-09-23T06:29:33.826Z,8.48
2022-09-23T06:34:27.016Z,5.88
2022-09-23T06:39:21.617Z,4.30
2022-09-23T06:44:14.933Z,8.20
2022-09-23T06:49:09.097Z,5.70
2022-09-23T06:54:02.710Z,5.75
2022-09-23T06:58:57.346Z,8.60
2022-09-23T07:03:54.315Z,8.77
2022-09-23T07:08:48.655Z,12.20
2022-09-23T07:13:42.759Z,11.77
2022-09-23T07:18:41.072Z,7.40
2022-09-23T07:23:35.118Z,12.10
2022-09-23T07:28:29.288Z,9.23
2022-09-23T07:33:31.637Z,11.02
2022-09-23T07:38:34.207Z,13.07
2022-09-23T07:43:32.044Z,10.15
2022-09-23T07:48:25.184Z,9.25
2022-09-23T07:53:18.303Z,8.77
2022-09-23T07:58:19.244Z,6.93
2022-09-23T08:03:12.374Z,7.55
2022-09-23T08:08:07.308Z,11.07
2022-09-23T08:13:06.585Z,6.93
2022-09-23T08:18:04.325Z,10.48
2022-09-23T08:22:57.453Z,7.72
2022-09-23T08:27:50.755Z,8.60
2022-09-23T08:32:43.923Z,12.80
2022-09-23T08:37:38.403Z,11.95
2022-09-23T08:42:34.985Z,9.80
2022-09-23T08:47:44.489Z,9.80
2022-09-23T08:52:50.208Z,12.40
2022-09-23T08:58:23.334Z,14.15
2022-09-23T09:03:21.925Z,11.23
2022-09-23T09:08:24.615Z,9.40
2022-09-23T09:13:31.030Z,9.27
2022-09-23T09:18:26.529Z,8.65
2022-09-23T09:23:25.076Z,9.10
2022-09-23T09:28:24.757Z,10.18
2022-09-23T09:33:24.503Z,10.07
2022-09-23T09:38:17.877Z,9.00
2022-09-23T09:43:22.790Z,8.13
2022-09-23T09:48:22.761Z,7.78
2022-09-23T09:53:26.453Z,10.55
2022-09-23T09:58:21.097Z,9.68
2022-09-23T10:03:35.507Z,9.65
2022-09-23T10:08:32.471Z,7.05
2022-09-23T10:13:29.508Z,8.93
2022-09-23T10:18:27.721Z,8.75
2022-09-23T10:23:28.713Z,7.78
2022-09-23T10:28:43.078Z,6.60
2022-09-23T10:33:44.085Z,7.97
2022-09-23T10:38:39.545Z,6.68
2022-09-23T10:44:11.870Z,9.68
2022-09-23T10:49:35.731Z,5.65
2022-09-23T10:54:42.521Z,8.20
2022-09-23T11:00:02.802Z,3.45
2022-09-23T11:05:16.815Z,4.47
2022-09-23T11:10:45.009Z,3.55
2022-09-23T11:15:55.421Z,3.83
2022-09-23T11:26:01.850Z,4.32
2022-09-23T11:31:06.574Z,3.90
2022-09-23T11:36:08.537Z,2.45
2022-09-23T11:41:05.281Z,3.00
2022-09-23T11:46:05.022Z,3.38
2022-09-23T11:51:03.332Z,3.55
2022-09-23T11:56:04.045Z,2.85
2022-09-23T12:01:05.549Z,2.60
2022-09-23T12:06:02.752Z,3.67
2022-09-23T12:11:06.192Z,2.00
2022-09-23T12:16:20.001Z,2.30
2022-09-23T12:21:50.323Z,1.73
2022-09-23T12:26:47.079Z,2.20
2022-09-23T12:31:46.777Z,4.10
2022-09-23T12:36:41.330Z,3.25
2022-09-23T12:41:38.518Z,3.40
2022-09-23T12:46:31.757Z,3.60
2022-09-23T12:51:27.011Z,2.58
2022-09-23T12:56:21.770Z,3.80
2022-09-23T13:01:20.559Z,3.83
2022-09-23T13:06:33.397Z,2.53
2022-09-23T13:11:31.891Z,3.50
2022-09-23T13:16:30.783Z,4.07
2022-09-23T13:22:06.972Z,2.28
2022-09-23T13:27:11.578Z,4.32
2022-09-23T13:32:06.407Z,2.28
2022-09-23T13:37:00.823Z,2.67
2022-09-23T13:41:56.892Z,3.65
2022-09-23T13:46:54.605Z,3.08
2022-09-23T13:51:48.537Z,2.70
2022-09-23T13:56:50.318Z,2.78
2022-09-23T14:01:47.265Z,2.03
2022-09-23T14:06:42.765Z,3.30
2022-09-23T14:11:37.333Z,6.13
2022-09-23T14:16:32.495Z,2.67
2022-09-23T14:21:34.031Z,3.50
2022-09-23T14:26:29.283Z,4.00
2022-09-23T14:31:22.715Z,2.80
2022-09-23T14:36:36.662Z,2.92
2022-09-23T14:41:36.547Z,3.75
2022-09-23T14:46:33.163Z,4.18
2022-09-23T14:51:45.985Z,3.55
2022-09-23T14:56:45.363Z,5.50
2022-09-23T15:01:40.105Z,3.40
2022-09-23T15:06:33.506Z,3.80
2022-09-23T15:11:26.824Z,2.67
2022-09-23T15:16:27.820Z,2.97
2022-09-23T15:21:23.318Z,5.22
2022-09-23T15:26:18.169Z,2.72
2022-09-23T15:31:12.945Z,2.25
2022-09-23T15:36:09.285Z,3.10
2022-09-23T15:41:03.192Z,2.15
2022-09-23T15:46:00.194Z,2.65
2022-09-23T15:50:57.006Z,2.92
2022-09-23T15:55:52.398Z,3.53
2022-09-23T16:00:46.062Z,5.72
2022-09-23T16:05:41.274Z,5.38
2022-09-23T16:10:34.967Z,5.60
2022-09-23T16:15:31.893Z,8.77
2022-09-23T16:20:28.609Z,4.47
2022-09-23T16:25:28.464Z,3.42
2022-09-23T16:30:21.786Z,5.85
2022-09-23T16:35:16.969Z,4.07
2022-09-23T16:40:11.199Z,4.78
2022-09-23T16:45:05.729Z,3.58
2022-09-23T16:50:01.449Z,3.00
2022-09-23T16:54:56.151Z,4.90
2022-09-23T17:00:08.976Z,5.78
2022-09-23T17:09:58.216Z,5.82
2022-09-23T17:14:52.640Z,4.97
2022-09-23T17:19:46.142Z,9.40
2022-09-23T17:24:39.309Z,6.97
2022-09-23T17:29:34.005Z,7.68
2022-09-23T17:34:28.973Z,4.68
2022-09-23T17:39:22.130Z,4.82
2022-09-23T17:44:16.208Z,3.78
2022-09-23T17:49:12.127Z,4.65
2022-09-23T17:54:07.851Z,8.40
2022-09-23T17:59:02.480Z,6.95
2022-09-23T18:03:56.258Z,7.70
2022-09-23T18:08:52.907Z,9.90
2022-09-23T18:13:50.847Z,6.13
2022-09-23T18:18:44.738Z,9.98
2022-09-23T18:23:38.272Z,8.32
2022-09-23T18:28:34.943Z,8.32
2022-09-23T18:33:28.456Z,9.50
2022-09-23T18:38:22.667Z,6.43
2022-09-23T18:43:19.627Z,17.58
2022-09-23T18:48:32.005Z,8.23
2022-09-23T18:53:25.320Z,10.82
2022-09-23T18:58:18.547Z,9.70
2022-09-23T19:03:11.762Z,19.95
2022-09-23T19:08:07.536Z,30.50
2022-09-23T19:13:00.758Z,30.13
2022-09-23T19:17:54.811Z,21.60
2022-09-23T19:22:48.536Z,11.27
2022-09-23T19:27:42.977Z,11.15
2022-09-23T19:32:36.132Z,15.93
2022-09-23T19:37:29.543Z,12.93
2022-09-23T19:42:25.087Z,12.70
2022-09-23T19:47:19.873Z,7.75
2022-09-23T19:52:16.845Z,7.00
2022-09-23T19:57:10.235Z,6.43
2022-09-23T20:02:03.546Z,7.18
2022-09-23T20:06:59.966Z,6.30
2022-09-23T20:11:53.499Z,5.00
2022-09-23T20:16:46.791Z,3.22
2022-09-23T20:22:07.036Z,3.42
2022-09-23T20:27:10.701Z,3.45
2022-09-23T20:32:04.200Z,3.33
2022-09-23T20:36:57.699Z,4.93
2022-09-23T20:41:52.456Z,5.22
2022-09-23T20:46:49.019Z,6.78
2022-09-23T20:51:42.762Z,3.75
2022-09-23T20:56:36.005Z,4.10
2022-09-23T21:01:29.641Z,4.88
2022-09-23T21:06:26.304Z,6.43
2022-09-23T21:11:20.293Z,4.55
2022-09-23T21:16:15.400Z,3.40
2022-09-23T21:21:09.185Z,6.22
2022-09-23T21:26:04.705Z,4.55
2022-09-23T21:30:59.753Z,4.30
2022-09-23T21:35:55.762Z,4.07
2022-09-23T21:40:57.758Z,3.38
2022-09-23T21:45:57.066Z,3.92
2022-09-23T21:50:55.784Z,3.58
2022-09-23T21:55:48.974Z,3.78
2022-09-23T22:00:42.193Z,3.65
2022-09-23T22:05:37.446Z,4.07
2022-09-23T22:10:30.618Z,5.15
2022-09-23T22:15:23.763Z,4.00
2022-09-23T22:20:17.103Z,7.85
2022-09-23T22:25:12.695Z,5.68
2022-09-23T22:30:24.263Z,3.03
2022-09-23T22:35:18.802Z,3.88
2022-09-23T22:40:18.456Z,5.00
2022-09-23T22:45:12.997Z,4.20
2022-09-23T22:50:07.187Z,4.22
2022-09-23T22:55:00.369Z,4.28
2022-09-23T22:59:54.991Z,4.45
2022-09-23T23:04:49.060Z,5.68
2022-09-23T23:09:43.130Z,6.07
2022-09-23T23:14:37.815Z,3.38
2022-09-23T23:19:32.356Z,4.38
2022-09-23T23:24:25.877Z,3.03
2022-09-23T23:29:20.818Z,3.67
2022-09-23T23:34:16.317Z,3.95
2022-09-23T23:39:11.602Z,3.83
2022-09-23T23:44:05.627Z,4.07
2022-09-23T23:48:59.999Z,4.30
2022-09-23T23:53:54.392Z,3.92
2022-09-23T23:58:49.102Z,3.95
